Terminal Aerodrome Forecast
Issued by NWS Billings, MT

Home | Current Version | Previous Version | Text Only | Print | Product List | Glossary On
Versions: 1 2 3 4 5 6 7 8 9 10 11 12 13 14 15 16 17 18 19 20 21 22 23 24 25 26 27 28
000
FTUS45 KBYZ 271534 AAB
TAFSHR
TAF AMD
KSHR 271534Z 2716/2812 33006KT P6SM VCSH SCT080 BKN150
     FM271900 33012KT P6SM BKN150
     FM272100 33015G25KT P6SM VCTS SCT080CB
     FM280300 28010KT P6SM BKN100=

USA.gov is the U.S. government's official web portal to all federal, state and local government web resources and services.